KEAT/EAT METAR and TAF weather

Enter ICAO airport designator
Station Type Date Time Source
KEAT METAR 2019/06/26 05:55 UTC NOAA

KEAT 260555Z AUTO VRB06KT 10SM CLR 15/07 A2984 RMK AO2 SLP101 60001 T01500067 10244 20150 51021


Station Type Date Time Source
KEAT Decoded METAR 2019/06/26 05:55 UTC NOAA

WENATCHEE PANGBORN MEMO, WA, United States (KEAT) 47-24N 120-12W 377M
Jun 26, 2019 - 01:55 AM EDT / 2019.06.26 0555 UTC
Wind: Variable at 7 MPH (6 KT):0
Visibility: 10 mile(s):0
Sky conditions: clear
Temperature: 59.0 F (15.0 C)
Dew Point: 44.1 F (6.7 C)
Relative Humidity: 57%
Pressure (altimeter): 29.84 in. Hg (1010 hPa)
Pressure tendency: 0.06 inches (2.1 hPa) higher than three hours ago
ob: KEAT 260555Z AUTO VRB06KT 10SM CLR 15/07 A2984 RMK AO2 SLP101 60001 T01500067 10244 20150 51021
cycle: 6

Station Type Date Time Source
KEAT TAF 2019/06/26 06:51 UTC NOAA

TAF KEAT 260548Z 2606/2706 26006KT P6SM SCT100
FM261100 31007KT P6SM VCSH SCT070 BKN100
FM262100 29005KT P6SM VCTS SCT060CB OVC100
TEMPO 2621/2701 P6SM -TSRA SCT060CB OVC090

Example: see airport list